sensor_id;sensor_type;location;lat;lon;timestamp;P1;durP1;ratioP1;P2;durP2;ratioP2
21000;SDS011;10658;50.920;12.238;2023-08-06T00:03:05;4.90;;;3.35;;
21000;SDS011;10658;50.920;12.238;2023-08-06T00:08:33;6.13;;;3.58;;
21000;SDS011;10658;50.920;12.238;2023-08-06T00:13:33;4.65;;;3.67;;
21000;SDS011;10658;50.920;12.238;2023-08-06T00:24:14;3.83;;;3.33;;
21000;SDS011;10658;50.920;12.238;2023-08-06T00:29:59;5.50;;;3.92;;
21000;SDS011;10658;50.920;12.238;2023-08-06T00:35:28;4.20;;;3.80;;
21000;SDS011;10658;50.920;12.238;2023-08-06T00:45:22;4.55;;;3.33;;
21000;SDS011;10658;50.920;12.238;2023-08-06T00:49:25;3.67;;;3.25;;
21000;SDS011;10658;50.920;12.238;2023-08-06T00:53:27;3.65;;;3.05;;
21000;SDS011;10658;50.920;12.238;2023-08-06T00:57:28;3.45;;;2.88;;
21000;SDS011;10658;50.920;12.238;2023-08-06T01:01:30;4.57;;;2.75;;
21000;SDS011;10658;50.920;12.238;2023-08-06T01:05:33;2.67;;;2.25;;
21000;SDS011;10658;50.920;12.238;2023-08-06T01:09:37;1.98;;;1.85;;
21000;SDS011;10658;50.920;12.238;2023-08-06T01:13:43;2.72;;;1.45;;
21000;SDS011;10658;50.920;12.238;2023-08-06T01:17:47;3.13;;;2.15;;
21000;SDS011;10658;50.920;12.238;2023-08-06T01:21:50;1.50;;;1.40;;
21000;SDS011;10658;50.920;12.238;2023-08-06T01:26:04;1.55;;;1.45;;
21000;SDS011;10658;50.920;12.238;2023-08-06T01:30:28;1.98;;;1.55;;
21000;SDS011;10658;50.920;12.238;2023-08-06T01:34:39;1.95;;;1.45;;
21000;SDS011;10658;50.920;12.238;2023-08-06T01:38:47;1.98;;;1.60;;
21000;SDS011;10658;50.920;12.238;2023-08-06T01:42:51;1.60;;;1.50;;
21000;SDS011;10658;50.920;12.238;2023-08-06T01:46:54;3.78;;;1.30;;
21000;SDS011;10658;50.920;12.238;2023-08-06T01:50:57;1.13;;;1.00;;
21000;SDS011;10658;50.920;12.238;2023-08-06T01:55:03;1.60;;;1.50;;
21000;SDS011;10658;50.920;12.238;2023-08-06T01:59:07;3.40;;;1.20;;
21000;SDS011;10658;50.920;12.238;2023-08-06T02:03:08;2.35;;;1.15;;
21000;SDS011;10658;50.920;12.238;2023-08-06T02:07:09;1.25;;;1.15;;
21000;SDS011;10658;50.920;12.238;2023-08-06T02:11:11;1.23;;;1.00;;
21000;SDS011;10658;50.920;12.238;2023-08-06T02:15:12;2.05;;;0.90;;
21000;SDS011;10658;50.920;12.238;2023-08-06T02:19:14;1.95;;;1.38;;
21000;SDS011;10658;50.920;12.238;2023-08-06T02:23:15;2.45;;;1.20;;
21000;SDS011;10658;50.920;12.238;2023-08-06T02:27:18;4.75;;;1.17;;
21000;SDS011;10658;50.920;12.238;2023-08-06T02:31:19;0.93;;;0.90;;
21000;SDS011;10658;50.920;12.238;2023-08-06T02:35:20;1.48;;;1.35;;
21000;SDS011;10658;50.920;12.238;2023-08-06T02:39:23;1.30;;;1.05;;
21000;SDS011;10658;50.920;12.238;2023-08-06T02:43:25;1.92;;;1.33;;
21000;SDS011;10658;50.920;12.238;2023-08-06T02:47:27;1.60;;;1.35;;
21000;SDS011;10658;50.920;12.238;2023-08-06T02:51:29;2.33;;;1.25;;
21000;SDS011;10658;50.920;12.238;2023-08-06T02:55:32;1.50;;;1.27;;
21000;SDS011;10658;50.920;12.238;2023-08-06T02:59:35;2.42;;;1.50;;
21000;SDS011;10658;50.920;12.238;2023-08-06T03:03:48;3.38;;;1.77;;
21000;SDS011;10658;50.920;12.238;2023-08-06T03:07:58;1.40;;;1.30;;
21000;SDS011;10658;50.920;12.238;2023-08-06T03:12:03;2.00;;;1.33;;
21000;SDS011;10658;50.920;12.238;2023-08-06T03:16:07;1.95;;;1.48;;
21000;SDS011;10658;50.920;12.238;2023-08-06T03:20:10;1.50;;;1.40;;
21000;SDS011;10658;50.920;12.238;2023-08-06T03:24:16;1.60;;;1.10;;
21000;SDS011;10658;50.920;12.238;2023-08-06T03:28:22;2.60;;;1.35;;
21000;SDS011;10658;50.920;12.238;2023-08-06T03:32:29;1.50;;;1.40;;
21000;SDS011;10658;50.920;12.238;2023-08-06T03:36:35;1.77;;;1.55;;
21000;SDS011;10658;50.920;12.238;2023-08-06T03:40:42;1.88;;;1.33;;
21000;SDS011;10658;50.920;12.238;2023-08-06T03:44:47;3.05;;;1.80;;
21000;SDS011;10658;50.920;12.238;2023-08-06T03:48:57;3.17;;;1.42;;
21000;SDS011;10658;50.920;12.238;2023-08-06T03:53:02;1.17;;;1.08;;
21000;SDS011;10658;50.920;12.238;2023-08-06T03:57:08;2.20;;;1.40;;
21000;SDS011;10658;50.920;12.238;2023-08-06T04:01:16;2.15;;;1.48;;
21000;SDS011;10658;50.920;12.238;2023-08-06T04:05:23;1.40;;;1.10;;
21000;SDS011;10658;50.920;12.238;2023-08-06T04:09:29;1.65;;;1.30;;
21000;SDS011;10658;50.920;12.238;2023-08-06T04:13:34;1.75;;;1.23;;
21000;SDS011;10658;50.920;12.238;2023-08-06T04:17:39;1.65;;;1.40;;
21000;SDS011;10658;50.920;12.238;2023-08-06T04:21:45;1.75;;;1.27;;
21000;SDS011;10658;50.920;12.238;2023-08-06T04:25:51;3.20;;;1.63;;
21000;SDS011;10658;50.920;12.238;2023-08-06T04:30:03;1.52;;;1.40;;
21000;SDS011;10658;50.920;12.238;2023-08-06T04:34:11;4.50;;;2.05;;
21000;SDS011;10658;50.920;12.238;2023-08-06T04:38:17;1.83;;;1.30;;
21000;SDS011;10658;50.920;12.238;2023-08-06T04:42:22;1.48;;;1.38;;
21000;SDS011;10658;50.920;12.238;2023-08-06T04:46:28;2.35;;;1.38;;
21000;SDS011;10658;50.920;12.238;2023-08-06T04:50:34;3.22;;;1.52;;
21000;SDS011;10658;50.920;12.238;2023-08-06T04:54:39;1.67;;;1.55;;
21000;SDS011;10658;50.920;12.238;2023-08-06T04:58:44;3.40;;;1.40;;
21000;SDS011;10658;50.920;12.238;2023-08-06T05:02:49;5.32;;;1.75;;
21000;SDS011;10658;50.920;12.238;2023-08-06T05:06:55;1.55;;;1.15;;
21000;SDS011;10658;50.920;12.238;2023-08-06T05:11:00;2.90;;;1.80;;
21000;SDS011;10658;50.920;12.238;2023-08-06T05:15:05;4.75;;;1.52;;
21000;SDS011;10658;50.920;12.238;2023-08-06T05:19:10;2.47;;;1.55;;
21000;SDS011;10658;50.920;12.238;2023-08-06T05:23:20;5.55;;;1.90;;
21000;SDS011;10658;50.920;12.238;2023-08-06T05:27:25;1.80;;;1.70;;
21000;SDS011;10658;50.920;12.238;2023-08-06T05:31:31;1.95;;;1.52;;
21000;SDS011;10658;50.920;12.238;2023-08-06T05:35:36;2.53;;;1.90;;
21000;SDS011;10658;50.920;12.238;2023-08-06T05:39:41;3.35;;;2.10;;
21000;SDS011;10658;50.920;12.238;2023-08-06T05:43:47;2.05;;;1.77;;
21000;SDS011;10658;50.920;12.238;2023-08-06T05:47:53;3.72;;;2.20;;
21000;SDS011;10658;50.920;12.238;2023-08-06T05:52:00;3.17;;;2.55;;
21000;SDS011;10658;50.920;12.238;2023-08-06T05:56:08;1.92;;;1.80;;
21000;SDS011;10658;50.920;12.238;2023-08-06T06:00:13;2.60;;;1.88;;
21000;SDS011;10658;50.920;12.238;2023-08-06T06:04:21;1.77;;;1.63;;
21000;SDS011;10658;50.920;12.238;2023-08-06T06:08:26;2.33;;;2.10;;
21000;SDS011;10658;50.920;12.238;2023-08-06T06:12:32;3.05;;;2.47;;
21000;SDS011;10658;50.920;12.238;2023-08-06T06:16:38;3.08;;;1.80;;
21000;SDS011;10658;50.920;12.238;2023-08-06T06:20:43;5.63;;;1.80;;
21000;SDS011;10658;50.920;12.238;2023-08-06T06:24:49;3.03;;;2.20;;
21000;SDS011;10658;50.920;12.238;2023-08-06T06:28:54;2.85;;;2.25;;
21000;SDS011;10658;50.920;12.238;2023-08-06T06:33:00;3.85;;;2.30;;
21000;SDS011;10658;50.920;12.238;2023-08-06T06:37:05;4.00;;;2.95;;
21000;SDS011;10658;50.920;12.238;2023-08-06T06:41:11;3.13;;;2.40;;
21000;SDS011;10658;50.920;12.238;2023-08-06T06:45:16;3.03;;;2.25;;
21000;SDS011;10658;50.920;12.238;2023-08-06T06:49:21;2.00;;;1.80;;
21000;SDS011;10658;50.920;12.238;2023-08-06T06:53:31;2.58;;;2.30;;
21000;SDS011;10658;50.920;12.238;2023-08-06T06:57:37;3.05;;;2.38;;
21000;SDS011;10658;50.920;12.238;2023-08-06T07:01:42;2.45;;;2.20;;
21000;SDS011;10658;50.920;12.238;2023-08-06T07:05:47;2.92;;;2.55;;
21000;SDS011;10658;50.920;12.238;2023-08-06T07:09:53;4.65;;;2.55;;
21000;SDS011;10658;50.920;12.238;2023-08-06T07:13:58;2.45;;;2.25;;
21000;SDS011;10658;50.920;12.238;2023-08-06T07:18:03;3.28;;;2.60;;
21000;SDS011;10658;50.920;12.238;2023-08-06T07:22:08;3.80;;;2.40;;
21000;SDS011;10658;50.920;12.238;2023-08-06T07:26:14;3.13;;;1.98;;
21000;SDS011;10658;50.920;12.238;2023-08-06T07:30:20;2.40;;;2.08;;
21000;SDS011;10658;50.920;12.238;2023-08-06T07:34:25;2.75;;;2.13;;
21000;SDS011;10658;50.920;12.238;2023-08-06T07:38:32;3.65;;;2.42;;
21000;SDS011;10658;50.920;12.238;2023-08-06T07:42:38;2.53;;;2.33;;
21000;SDS011;10658;50.920;12.238;2023-08-06T07:46:48;2.75;;;2.03;;
21000;SDS011;10658;50.920;12.238;2023-08-06T07:50:54;5.10;;;2.35;;
21000;SDS011;10658;50.920;12.238;2023-08-06T07:55:00;2.30;;;2.10;;
21000;SDS011;10658;50.920;12.238;2023-08-06T07:59:07;2.17;;;1.85;;
21000;SDS011;10658;50.920;12.238;2023-08-06T08:03:13;2.05;;;1.70;;
21000;SDS011;10658;50.920;12.238;2023-08-06T08:07:20;3.63;;;2.17;;
21000;SDS011;10658;50.920;12.238;2023-08-06T08:11:25;2.78;;;2.45;;
21000;SDS011;10658;50.920;12.238;2023-08-06T08:15:31;2.45;;;2.05;;
21000;SDS011;10658;50.920;12.238;2023-08-06T08:19:39;3.10;;;2.10;;
21000;SDS011;10658;50.920;12.238;2023-08-06T08:23:45;3.17;;;2.17;;
21000;SDS011;10658;50.920;12.238;2023-08-06T08:27:49;4.05;;;1.80;;
21000;SDS011;10658;50.920;12.238;2023-08-06T08:31:55;2.92;;;1.73;;
21000;SDS011;10658;50.920;12.238;2023-08-06T08:36:04;4.43;;;2.10;;
21000;SDS011;10658;50.920;12.238;2023-08-06T08:40:10;2.17;;;1.70;;
21000;SDS011;10658;50.920;12.238;2023-08-06T08:44:18;4.60;;;1.98;;
21000;SDS011;10658;50.920;12.238;2023-08-06T08:48:24;2.17;;;1.80;;
21000;SDS011;10658;50.920;12.238;2023-08-06T08:52:33;1.77;;;1.67;;
21000;SDS011;10658;50.920;12.238;2023-08-06T08:56:35;1.90;;;1.70;;
21000;SDS011;10658;50.920;12.238;2023-08-06T09:00:41;1.83;;;1.70;;
21000;SDS011;10658;50.920;12.238;2023-08-06T09:05:08;2.78;;;1.73;;
21000;SDS011;10658;50.920;12.238;2023-08-06T09:09:36;2.22;;;1.77;;
21000;SDS011;10658;50.920;12.238;2023-08-06T09:14:13;2.47;;;1.60;;
21000;SDS011;10658;50.920;12.238;2023-08-06T09:18:37;1.83;;;1.58;;
21000;SDS011;10658;50.920;12.238;2023-08-06T09:22:56;1.85;;;1.50;;
21000;SDS011;10658;50.920;12.238;2023-08-06T09:27:02;1.48;;;1.35;;
21000;SDS011;10658;50.920;12.238;2023-08-06T09:31:08;2.20;;;2.00;;
21000;SDS011;10658;50.920;12.238;2023-08-06T09:35:21;2.45;;;1.40;;
21000;SDS011;10658;50.920;12.238;2023-08-06T09:39:29;4.10;;;1.88;;
21000;SDS011;10658;50.920;12.238;2023-08-06T09:43:41;2.35;;;1.80;;
21000;SDS011;10658;50.920;12.238;2023-08-06T09:47:52;2.13;;;1.40;;
21000;SDS011;10658;50.920;12.238;2023-08-06T09:52:01;5.30;;;1.77;;
21000;SDS011;10658;50.920;12.238;2023-08-06T09:56:08;4.05;;;1.92;;
21000;SDS011;10658;50.920;12.238;2023-08-06T10:00:16;2.90;;;1.67;;
21000;SDS011;10658;50.920;12.238;2023-08-06T10:04:21;2.10;;;1.25;;
21000;SDS011;10658;50.920;12.238;2023-08-06T10:08:28;1.70;;;1.60;;
21000;SDS011;10658;50.920;12.238;2023-08-06T10:12:38;3.17;;;1.58;;
21000;SDS011;10658;50.920;12.238;2023-08-06T10:16:48;2.15;;;1.80;;
21000;SDS011;10658;50.920;12.238;2023-08-06T10:20:54;7.10;;;2.00;;
21000;SDS011;10658;50.920;12.238;2023-08-06T10:25:00;2.38;;;1.52;;
21000;SDS011;10658;50.920;12.238;2023-08-06T10:33:45;1.70;;;1.60;;
21000;SDS011;10658;50.920;12.238;2023-08-06T10:37:51;2.20;;;1.70;;
21000;SDS011;10658;50.920;12.238;2023-08-06T10:41:56;2.20;;;1.50;;
21000;SDS011;10658;50.920;12.238;2023-08-06T10:46:02;1.83;;;1.02;;
21000;SDS011;10658;50.920;12.238;2023-08-06T10:50:14;1.88;;;1.33;;
21000;SDS011;10658;50.920;12.238;2023-08-06T10:54:20;2.03;;;1.70;;
21000;SDS011;10658;50.920;12.238;2023-08-06T10:58:30;1.52;;;1.40;;
21000;SDS011;10658;50.920;12.238;2023-08-06T11:02:36;1.52;;;1.42;;
21000;SDS011;10658;50.920;12.238;2023-08-06T11:06:42;1.65;;;1.55;;
21000;SDS011;10658;50.920;12.238;2023-08-06T11:10:47;1.58;;;1.40;;
21000;SDS011;10658;50.920;12.238;2023-08-06T11:14:54;2.13;;;1.75;;
21000;SDS011;10658;50.920;12.238;2023-08-06T11:18:57;2.65;;;1.60;;
21000;SDS011;10658;50.920;12.238;2023-08-06T11:23:02;2.10;;;1.40;;
21000;SDS011;10658;50.920;12.238;2023-08-06T11:27:12;2.42;;;1.77;;
21000;SDS011;10658;50.920;12.238;2023-08-06T11:31:21;2.70;;;1.48;;
21000;SDS011;10658;50.920;12.238;2023-08-06T11:35:26;1.77;;;1.60;;
21000;SDS011;10658;50.920;12.238;2023-08-06T11:39:32;3.22;;;1.42;;
21000;SDS011;10658;50.920;12.238;2023-08-06T11:43:35;1.30;;;1.13;;
21000;SDS011;10658;50.920;12.238;2023-08-06T11:47:40;2.17;;;1.60;;
21000;SDS011;10658;50.920;12.238;2023-08-06T11:51:42;1.60;;;1.50;;
21000;SDS011;10658;50.920;12.238;2023-08-06T11:55:49;1.45;;;1.35;;
21000;SDS011;10658;50.920;12.238;2023-08-06T11:59:53;1.45;;;1.33;;
21000;SDS011;10658;50.920;12.238;2023-08-06T12:04:00;2.95;;;1.30;;
21000;SDS011;10658;50.920;12.238;2023-08-06T12:08:03;1.50;;;1.25;;
21000;SDS011;10658;50.920;12.238;2023-08-06T12:12:10;1.77;;;1.30;;
21000;SDS011;10658;50.920;12.238;2023-08-06T12:16:14;2.28;;;1.20;;
21000;SDS011;10658;50.920;12.238;2023-08-06T12:20:19;1.83;;;1.50;;
21000;SDS011;10658;50.920;12.238;2023-08-06T12:24:24;2.28;;;1.80;;
21000;SDS011;10658;50.920;12.238;2023-08-06T12:28:25;2.60;;;1.58;;
21000;SDS011;10658;50.920;12.238;2023-08-06T12:32:27;1.67;;;1.35;;
21000;SDS011;10658;50.920;12.238;2023-08-06T12:36:31;1.80;;;1.30;;
21000;SDS011;10658;50.920;12.238;2023-08-06T12:40:34;1.23;;;1.13;;
21000;SDS011;10658;50.920;12.238;2023-08-06T12:44:38;2.72;;;1.05;;
21000;SDS011;10658;50.920;12.238;2023-08-06T12:48:41;1.88;;;1.05;;
21000;SDS011;10658;50.920;12.238;2023-08-06T12:52:45;4.25;;;1.92;;
21000;SDS011;10658;50.920;12.238;2023-08-06T12:56:50;5.32;;;1.38;;
21000;SDS011;10658;50.920;12.238;2023-08-06T13:00:54;3.35;;;1.85;;
21000;SDS011;10658;50.920;12.238;2023-08-06T13:04:55;2.45;;;1.05;;
21000;SDS011;10658;50.920;12.238;2023-08-06T13:08:58;2.63;;;1.15;;
21000;SDS011;10658;50.920;12.238;2023-08-06T13:13:02;1.35;;;1.00;;
21000;SDS011;10658;50.920;12.238;2023-08-06T13:17:06;1.83;;;1.02;;
21000;SDS011;10658;50.920;12.238;2023-08-06T13:21:12;1.75;;;0.77;;
21000;SDS011;10658;50.920;12.238;2023-08-06T13:25:17;1.67;;;0.88;;
21000;SDS011;10658;50.920;12.238;2023-08-06T13:29:23;2.67;;;0.88;;
21000;SDS011;10658;50.920;12.238;2023-08-06T13:33:29;1.20;;;1.05;;
21000;SDS011;10658;50.920;12.238;2023-08-06T13:37:34;1.40;;;1.30;;
21000;SDS011;10658;50.920;12.238;2023-08-06T13:41:39;2.35;;;1.20;;
21000;SDS011;10658;50.920;12.238;2023-08-06T13:45:44;1.05;;;0.90;;
21000;SDS011;10658;50.920;12.238;2023-08-06T13:49:50;2.75;;;1.23;;
21000;SDS011;10658;50.920;12.238;2023-08-06T13:53:55;1.42;;;0.95;;
21000;SDS011;10658;50.920;12.238;2023-08-06T13:58:02;1.88;;;1.13;;
21000;SDS011;10658;50.920;12.238;2023-08-06T14:02:09;1.48;;;1.35;;
21000;SDS011;10658;50.920;12.238;2023-08-06T14:06:14;2.40;;;1.50;;
21000;SDS011;10658;50.920;12.238;2023-08-06T14:10:19;1.50;;;1.20;;
21000;SDS011;10658;50.920;12.238;2023-08-06T14:14:23;1.30;;;1.20;;
21000;SDS011;10658;50.920;12.238;2023-08-06T14:18:32;2.92;;;1.20;;
21000;SDS011;10658;50.920;12.238;2023-08-06T14:22:37;4.13;;;1.80;;
21000;SDS011;10658;50.920;12.238;2023-08-06T14:26:41;2.17;;;1.50;;
21000;SDS011;10658;50.920;12.238;2023-08-06T14:30:47;2.78;;;1.67;;
21000;SDS011;10658;50.920;12.238;2023-08-06T14:34:52;4.88;;;1.52;;
21000;SDS011;10658;50.920;12.238;2023-08-06T14:39:01;2.25;;;1.73;;
21000;SDS011;10658;50.920;12.238;2023-08-06T14:43:06;2.00;;;1.40;;
21000;SDS011;10658;50.920;12.238;2023-08-06T14:47:13;3.28;;;1.90;;
21000;SDS011;10658;50.920;12.238;2023-08-06T14:51:20;2.40;;;1.73;;
21000;SDS011;10658;50.920;12.238;2023-08-06T14:55:28;2.25;;;1.55;;
21000;SDS011;10658;50.920;12.238;2023-08-06T14:59:37;3.92;;;1.30;;
21000;SDS011;10658;50.920;12.238;2023-08-06T15:03:43;2.85;;;1.33;;
21000;SDS011;10658;50.920;12.238;2023-08-06T15:07:51;1.20;;;1.10;;
21000;SDS011;10658;50.920;12.238;2023-08-06T15:11:59;1.45;;;1.35;;
21000;SDS011;10658;50.920;12.238;2023-08-06T15:16:09;3.63;;;1.17;;
21000;SDS011;10658;50.920;12.238;2023-08-06T15:20:15;1.75;;;1.15;;
21000;SDS011;10658;50.920;12.238;2023-08-06T15:24:22;1.35;;;1.02;;
21000;SDS011;10658;50.920;12.238;2023-08-06T15:28:29;1.95;;;1.08;;
21000;SDS011;10658;50.920;12.238;2023-08-06T15:32:44;1.42;;;1.00;;
21000;SDS011;10658;50.920;12.238;2023-08-06T15:37:21;1.70;;;0.93;;
21000;SDS011;10658;50.920;12.238;2023-08-06T15:41:43;0.60;;;0.60;;
21000;SDS011;10658;50.920;12.238;2023-08-06T15:45:55;2.78;;;0.60;;
21000;SDS011;10658;50.920;12.238;2023-08-06T15:50:01;1.33;;;0.80;;
21000;SDS011;10658;50.920;12.238;2023-08-06T15:54:08;2.22;;;1.27;;
21000;SDS011;10658;50.920;12.238;2023-08-06T15:58:14;1.20;;;0.80;;
21000;SDS011;10658;50.920;12.238;2023-08-06T16:02:21;1.52;;;1.42;;
21000;SDS011;10658;50.920;12.238;2023-08-06T16:06:43;1.42;;;1.10;;
21000;SDS011;10658;50.920;12.238;2023-08-06T16:11:14;1.27;;;1.17;;
21000;SDS011;10658;50.920;12.238;2023-08-06T16:15:37;1.73;;;1.35;;
21000;SDS011;10658;50.920;12.238;2023-08-06T16:19:51;2.38;;;1.10;;
21000;SDS011;10658;50.920;12.238;2023-08-06T16:24:11;1.77;;;1.20;;
21000;SDS011;10658;50.920;12.238;2023-08-06T16:28:33;1.92;;;1.05;;
21000;SDS011;10658;50.920;12.238;2023-08-06T16:32:54;3.53;;;1.88;;
21000;SDS011;10658;50.920;12.238;2023-08-06T16:37:14;2.17;;;1.27;;
21000;SDS011;10658;50.920;12.238;2023-08-06T16:41:36;2.30;;;1.20;;
21000;SDS011;10658;50.920;12.238;2023-08-06T16:46:01;1.35;;;1.23;;
21000;SDS011;10658;50.920;12.238;2023-08-06T16:50:21;1.45;;;1.27;;
21000;SDS011;10658;50.920;12.238;2023-08-06T16:54:27;1.63;;;1.00;;
21000;SDS011;10658;50.920;12.238;2023-08-06T16:58:33;1.25;;;1.10;;
21000;SDS011;10658;50.920;12.238;2023-08-06T17:02:38;2.35;;;1.00;;
21000;SDS011;10658;50.920;12.238;2023-08-06T17:06:44;0.70;;;0.70;;
21000;SDS011;10658;50.920;12.238;2023-08-06T17:10:50;0.93;;;0.85;;
21000;SDS011;10658;50.920;12.238;2023-08-06T17:14:58;1.00;;;0.70;;
21000;SDS011;10658;50.920;12.238;2023-08-06T17:19:03;2.05;;;0.88;;
21000;SDS011;10658;50.920;12.238;2023-08-06T17:23:09;1.55;;;0.70;;
21000;SDS011;10658;50.920;12.238;2023-08-06T17:27:15;2.15;;;0.93;;
21000;SDS011;10658;50.920;12.238;2023-08-06T17:31:25;2.88;;;1.08;;
21000;SDS011;10658;50.920;12.238;2023-08-06T17:35:30;2.30;;;1.00;;
21000;SDS011;10658;50.920;12.238;2023-08-06T17:39:36;4.78;;;1.23;;
21000;SDS011;10658;50.920;12.238;2023-08-06T17:43:41;1.92;;;1.00;;
21000;SDS011;10658;50.920;12.238;2023-08-06T17:47:47;3.17;;;1.40;;
21000;SDS011;10658;50.920;12.238;2023-08-06T17:51:53;3.72;;;1.40;;
21000;SDS011;10658;50.920;12.238;2023-08-06T17:55:59;1.17;;;0.88;;
21000;SDS011;10658;50.920;12.238;2023-08-06T18:00:05;1.67;;;0.95;;
21000;SDS011;10658;50.920;12.238;2023-08-06T18:04:19;2.22;;;1.05;;
21000;SDS011;10658;50.920;12.238;2023-08-06T18:08:25;2.40;;;0.90;;
21000;SDS011;10658;50.920;12.238;2023-08-06T18:12:32;1.23;;;0.70;;
21000;SDS011;10658;50.920;12.238;2023-08-06T18:16:40;1.08;;;0.90;;
21000;SDS011;10658;50.920;12.238;2023-08-06T18:20:48;2.72;;;1.00;;
21000;SDS011;10658;50.920;12.238;2023-08-06T18:24:54;0.70;;;0.70;;
21000;SDS011;10658;50.920;12.238;2023-08-06T18:29:09;0.63;;;0.63;;
21000;SDS011;10658;50.920;12.238;2023-08-06T18:33:14;2.00;;;0.68;;
21000;SDS011;10658;50.920;12.238;2023-08-06T18:37:19;2.90;;;0.70;;
21000;SDS011;10658;50.920;12.238;2023-08-06T18:41:24;0.47;;;0.40;;
21000;SDS011;10658;50.920;12.238;2023-08-06T18:45:30;0.60;;;0.60;;
21000;SDS011;10658;50.920;12.238;2023-08-06T18:49:45;1.60;;;0.70;;
21000;SDS011;10658;50.920;12.238;2023-08-06T18:53:51;3.95;;;1.05;;
21000;SDS011;10658;50.920;12.238;2023-08-06T18:58:00;2.05;;;1.20;;
21000;SDS011;10658;50.920;12.238;2023-08-06T19:02:12;3.30;;;0.90;;
21000;SDS011;10658;50.920;12.238;2023-08-06T19:06:18;0.60;;;0.40;;
21000;SDS011;10658;50.920;12.238;2023-08-06T19:10:23;3.03;;;0.88;;
21000;SDS011;10658;50.920;12.238;2023-08-06T19:14:30;3.40;;;0.75;;
21000;SDS011;10658;50.920;12.238;2023-08-06T19:18:37;2.55;;;0.50;;
21000;SDS011;10658;50.920;12.238;2023-08-06T19:22:43;0.50;;;0.35;;
21000;SDS011;10658;50.920;12.238;2023-08-06T19:26:49;2.47;;;0.82;;
21000;SDS011;10658;50.920;12.238;2023-08-06T19:30:54;1.35;;;0.60;;
21000;SDS011;10658;50.920;12.238;2023-08-06T19:35:01;0.68;;;0.50;;
21000;SDS011;10658;50.920;12.238;2023-08-06T19:39:07;0.85;;;0.60;;
21000;SDS011;10658;50.920;12.238;2023-08-06T19:43:11;2.22;;;0.57;;
21000;SDS011;10658;50.920;12.238;2023-08-06T19:47:15;1.50;;;0.80;;
21000;SDS011;10658;50.920;12.238;2023-08-06T19:51:23;1.77;;;0.80;;
21000;SDS011;10658;50.920;12.238;2023-08-06T19:55:26;3.47;;;0.50;;
21000;SDS011;10658;50.920;12.238;2023-08-06T19:59:31;1.80;;;0.80;;
21000;SDS011;10658;50.920;12.238;2023-08-06T20:03:35;0.80;;;0.75;;
21000;SDS011;10658;50.920;12.238;2023-08-06T20:07:38;2.90;;;1.00;;
21000;SDS011;10658;50.920;12.238;2023-08-06T20:11:39;2.70;;;0.93;;
21000;SDS011;10658;50.920;12.238;2023-08-06T20:15:41;2.20;;;1.02;;
21000;SDS011;10658;50.920;12.238;2023-08-06T20:19:43;5.47;;;0.95;;
21000;SDS011;10658;50.920;12.238;2023-08-06T20:23:46;1.67;;;1.02;;
21000;SDS011;10658;50.920;12.238;2023-08-06T20:27:47;3.20;;;1.55;;
21000;SDS011;10658;50.920;12.238;2023-08-06T20:31:48;3.05;;;1.08;;
21000;SDS011;10658;50.920;12.238;2023-08-06T20:35:50;3.33;;;1.40;;
21000;SDS011;10658;50.920;12.238;2023-08-06T20:39:57;1.35;;;1.00;;
21000;SDS011;10658;50.920;12.238;2023-08-06T20:43:59;1.73;;;1.17;;
21000;SDS011;10658;50.920;12.238;2023-08-06T20:48:01;1.95;;;1.25;;
21000;SDS011;10658;50.920;12.238;2023-08-06T20:52:02;1.27;;;1.10;;
21000;SDS011;10658;50.920;12.238;2023-08-06T20:56:04;2.22;;;1.40;;
21000;SDS011;10658;50.920;12.238;2023-08-06T21:00:05;4.32;;;1.30;;
21000;SDS011;10658;50.920;12.238;2023-08-06T21:04:07;1.40;;;1.15;;
21000;SDS011;10658;50.920;12.238;2023-08-06T21:08:10;1.90;;;1.27;;
21000;SDS011;10658;50.920;12.238;2023-08-06T21:12:12;2.65;;;1.35;;
21000;SDS011;10658;50.920;12.238;2023-08-06T21:16:16;3.55;;;1.10;;
21000;SDS011;10658;50.920;12.238;2023-08-06T21:20:21;1.50;;;1.40;;
21000;SDS011;10658;50.920;12.238;2023-08-06T21:24:27;1.50;;;1.30;;
21000;SDS011;10658;50.920;12.238;2023-08-06T21:28:33;4.35;;;1.30;;
21000;SDS011;10658;50.920;12.238;2023-08-06T21:32:41;1.30;;;1.20;;
21000;SDS011;10658;50.920;12.238;2023-08-06T21:36:45;3.15;;;1.38;;
21000;SDS011;10658;50.920;12.238;2023-08-06T21:40:53;3.33;;;1.65;;
21000;SDS011;10658;50.920;12.238;2023-08-06T21:45:02;3.22;;;1.30;;
21000;SDS011;10658;50.920;12.238;2023-08-06T21:49:05;2.00;;;1.77;;
21000;SDS011;10658;50.920;12.238;2023-08-06T21:53:06;1.65;;;1.55;;
21000;SDS011;10658;50.920;12.238;2023-08-06T21:57:08;5.20;;;1.58;;
21000;SDS011;10658;50.920;12.238;2023-08-06T22:01:10;4.07;;;2.03;;
21000;SDS011;10658;50.920;12.238;2023-08-06T22:05:12;1.95;;;1.50;;
21000;SDS011;10658;50.920;12.238;2023-08-06T22:09:13;2.08;;;1.60;;
21000;SDS011;10658;50.920;12.238;2023-08-06T22:13:19;4.00;;;2.20;;
21000;SDS011;10658;50.920;12.238;2023-08-06T22:17:23;2.78;;;1.48;;
21000;SDS011;10658;50.920;12.238;2023-08-06T22:21:25;2.55;;;1.65;;
21000;SDS011;10658;50.920;12.238;2023-08-06T22:25:28;2.58;;;1.60;;
21000;SDS011;10658;50.920;12.238;2023-08-06T22:29:33;2.17;;;0.98;;
21000;SDS011;10658;50.920;12.238;2023-08-06T22:33:39;1.98;;;1.15;;
21000;SDS011;10658;50.920;12.238;2023-08-06T22:37:47;2.75;;;1.48;;
21000;SDS011;10658;50.920;12.238;2023-08-06T22:41:52;2.03;;;1.30;;
21000;SDS011;10658;50.920;12.238;2023-08-06T22:45:58;3.95;;;1.60;;
21000;SDS011;10658;50.920;12.238;2023-08-06T22:50:05;4.43;;;1.38;;
21000;SDS011;10658;50.920;12.238;2023-08-06T22:54:09;1.45;;;1.27;;
21000;SDS011;10658;50.920;12.238;2023-08-06T22:58:13;1.65;;;0.98;;
21000;SDS011;10658;50.920;12.238;2023-08-06T23:02:16;1.23;;;1.10;;
21000;SDS011;10658;50.920;12.238;2023-08-06T23:06:18;1.63;;;0.85;;
21000;SDS011;10658;50.920;12.238;2023-08-06T23:10:21;0.88;;;0.88;;
21000;SDS011;10658;50.920;12.238;2023-08-06T23:14:26;1.05;;;0.75;;
21000;SDS011;10658;50.920;12.238;2023-08-06T23:18:30;1.52;;;0.80;;
21000;SDS011;10658;50.920;12.238;2023-08-06T23:22:32;0.95;;;0.90;;
21000;SDS011;10658;50.920;12.238;2023-08-06T23:26:33;1.50;;;0.88;;
21000;SDS011;10658;50.920;12.238;2023-08-06T23:30:35;1.20;;;0.95;;
21000;SDS011;10658;50.920;12.238;2023-08-06T23:34:36;0.90;;;0.80;;
21000;SDS011;10658;50.920;12.238;2023-08-06T23:38:38;0.77;;;0.63;;
21000;SDS011;10658;50.920;12.238;2023-08-06T23:42:40;2.03;;;0.80;;
21000;SDS011;10658;50.920;12.238;2023-08-06T23:46:43;1.02;;;0.60;;
21000;SDS011;10658;50.920;12.238;2023-08-06T23:50:45;0.70;;;0.70;;
21000;SDS011;10658;50.920;12.238;2023-08-06T23:54:51;4.85;;;1.20;;
21000;SDS011;10658;50.920;12.238;2023-08-06T23:58:55;2.40;;;1.00;;
